Time;durP1;ratioP1;P1;durP2;ratioP2;P2;SDS_P1;SDS_P2;PMS_P1;PMS_P2;Temp;Humidity;BMP_temperature;BMP_pressure;BME280_temperature;BME280_humidity;BME280_pressure;Samples;Min_cycle;Max_cycle;Signal;HPM_P1;HPM_P2
2021/06/16 00:00:27;;;;;;;7.82;5.40;;;;;;;;;;5046475;28;20113;-63
2021/06/16 00:02:52;;;;;;;8.45;5.30;;;;;;;;;;5049016;28;20119;-65
2021/06/16 00:05:20;;;;;;;7.43;5.18;;;;;;;;;;5047617;28;20079;-64
2021/06/16 00:07:45;;;;;;;8.55;4.97;;;;;;;;;;5048454;28;20017;-62
2021/06/16 00:10:11;;;;;;;7.50;4.88;;;;;;;;;;5048076;28;20380;-63
2021/06/16 00:12:37;;;;;;;10.63;4.68;;;;;;;;;;5048751;28;20021;-62
2021/06/16 00:15:22;;;;;;;7.95;5.10;;;;;;;;;;5047798;28;20048;-63
2021/06/16 00:17:47;;;;;;;8.43;4.60;;;;;;;;;;5045768;28;20382;-63
2021/06/16 00:20:13;;;;;;;8.80;4.88;;;;;;;;;;5047751;28;20111;-63
2021/06/16 00:22:39;;;;;;;8.30;5.38;;;;;;;;;;5047277;28;20059;-63
2021/06/16 00:25:05;;;;;;;11.80;5.63;;;;;;;;;;5048174;28;20025;-62
2021/06/16 00:27:31;;;;;;;11.27;5.38;;;;;;;;;;5047234;28;20029;-63
2021/06/16 00:29:56;;;;;;;9.52;5.32;;;;;;;;;;5047561;28;20016;-63
2021/06/16 00:32:21;;;;;;;11.38;4.40;;;;;;;;;;5047760;28;20024;-64
2021/06/16 00:34:46;;;;;;;9.30;4.55;;;;;;;;;;5047340;28;20036;-63
2021/06/16 00:37:11;;;;;;;6.80;4.37;;;;;;;;;;5047623;28;20421;-63
2021/06/16 00:39:36;;;;;;;7.77;4.27;;;;;;;;;;5047692;28;20311;-63
2021/06/16 00:42:02;;;;;;;8.20;4.50;;;;;;;;;;5047916;28;20279;-64
2021/06/16 00:44:27;;;;;;;7.90;4.75;;;;;;;;;;5047562;28;20100;-64
2021/06/16 00:46:52;;;;;;;8.93;4.22;;;;;;;;;;5047739;28;20506;-64
2021/06/16 00:49:18;;;;;;;7.57;4.53;;;;;;;;;;5047129;28;20036;-63
2021/06/16 00:51:43;;;;;;;6.27;3.90;;;;;;;;;;5047328;28;20072;-63
2021/06/16 00:54:11;;;;;;;10.15;3.75;;;;;;;;;;5047560;28;20287;-63
2021/06/16 00:56:40;;;;;;;9.40;4.07;;;;;;;;;;5047476;28;20088;-63
2021/06/16 00:59:07;;;;;;;8.02;4.43;;;;;;;;;;5047290;28;20025;-63
2021/06/16 01:01:33;;;;;;;6.13;3.90;;;;;;;;;;5046886;28;20068;-63
2021/06/16 01:04:15;;;;;;;6.45;3.75;;;;;;;;;;5047692;28;20436;-64
2021/06/16 01:06:51;;;;;;;5.25;3.83;;;;;;;;;;5050672;28;20052;-64
2021/06/16 01:09:16;;;;;;;9.65;4.30;;;;;;;;;;5050581;28;20017;-63
2021/06/16 01:12:03;;;;;;;9.00;4.00;;;;;;;;;;5050795;28;20078;-64
2021/06/16 01:14:32;;;;;;;6.05;3.65;;;;;;;;;;5045459;28;20032;-63
2021/06/16 01:16:58;;;;;;;6.55;3.42;;;;;;;;;;5050655;28;20095;-64
2021/06/16 01:19:35;;;;;;;6.45;3.70;;;;;;;;;;5050584;28;20078;-64
2021/06/16 01:22:02;;;;;;;6.35;3.75;;;;;;;;;;5049951;28;20041;-64
2021/06/16 01:24:30;;;;;;;5.63;3.78;;;;;;;;;;5050835;28;20100;-64
2021/06/16 01:26:55;;;;;;;8.15;3.70;;;;;;;;;;5050748;28;20021;-64
2021/06/16 01:29:23;;;;;;;7.78;4.50;;;;;;;;;;5048728;28;20044;-63
2021/06/16 01:31:49;;;;;;;6.78;3.85;;;;;;;;;;5051235;28;20043;-63
2021/06/16 01:34:15;;;;;;;6.30;4.07;;;;;;;;;;5048681;28;20049;-64
2021/06/16 01:36:42;;;;;;;5.03;3.67;;;;;;;;;;5050547;28;20372;-64
2021/06/16 01:39:09;;;;;;;6.43;3.80;;;;;;;;;;5049951;28;20464;-63
2021/06/16 01:41:34;;;;;;;6.85;3.50;;;;;;;;;;5050442;28;20368;-63
2021/06/16 01:44:00;;;;;;;5.60;3.50;;;;;;;;;;5055570;28;20035;-63
2021/06/16 01:46:26;;;;;;;5.97;3.78;;;;;;;;;;5050343;28;20036;-63
2021/06/16 01:48:52;;;;;;;5.68;3.58;;;;;;;;;;5050190;28;20399;-64
2021/06/16 01:51:17;;;;;;;8.13;4.18;;;;;;;;;;5048244;28;20471;-64
2021/06/16 01:53:42;;;;;;;5.85;3.60;;;;;;;;;;5049981;28;20124;-63
2021/06/16 01:56:08;;;;;;;5.75;3.53;;;;;;;;;;5050360;28;20150;-64
2021/06/16 01:58:34;;;;;;;7.10;3.35;;;;;;;;;;5049479;28;20025;-64
2021/06/16 02:01:00;;;;;;;6.65;3.25;;;;;;;;;;5049537;28;20021;-63
2021/06/16 02:03:25;;;;;;;4.57;3.20;;;;;;;;;;5049702;28;20025;-63
2021/06/16 02:05:50;;;;;;;4.93;2.95;;;;;;;;;;5049781;28;20021;-63
2021/06/16 02:08:18;;;;;;;6.18;3.42;;;;;;;;;;5049712;28;20025;-63
2021/06/16 02:10:48;;;;;;;5.03;3.28;;;;;;;;;;5049418;28;20043;-63
2021/06/16 02:13:14;;;;;;;5.30;3.15;;;;;;;;;;5047440;28;20029;-63
2021/06/16 02:15:47;;;;;;;4.85;3.08;;;;;;;;;;5049321;28;20047;-63
2021/06/16 02:18:13;;;;;;;7.30;2.90;;;;;;;;;;5047807;28;20084;-63
2021/06/16 02:20:39;;;;;;;5.53;3.30;;;;;;;;;;5047364;28;20051;-63
2021/06/16 02:23:04;;;;;;;5.10;2.85;;;;;;;;;;5049635;28;20439;-63
2021/06/16 02:25:29;;;;;;;3.92;3.08;;;;;;;;;;5049680;28;20135;-63
2021/06/16 02:27:54;;;;;;;5.38;2.90;;;;;;;;;;5049279;28;20096;-63
2021/06/16 02:30:20;;;;;;;5.47;3.20;;;;;;;;;;5048932;28;20049;-63
2021/06/16 02:32:45;;;;;;;5.18;3.08;;;;;;;;;;5048820;28;20098;-62
2021/06/16 02:35:10;;;;;;;7.68;3.00;;;;;;;;;;5048922;28;20025;-63
2021/06/16 02:37:38;;;;;;;4.53;3.25;;;;;;;;;;5048919;28;20058;-64
2021/06/16 02:40:06;;;;;;;5.80;3.00;;;;;;;;;;5048910;28;20033;-63
2021/06/16 02:42:32;;;;;;;7.93;3.50;;;;;;;;;;5048471;28;20021;-63
2021/06/16 02:44:59;;;;;;;4.85;2.95;;;;;;;;;;5048958;28;20024;-63
2021/06/16 02:47:25;;;;;;;5.22;3.28;;;;;;;;;;5049478;28;20368;-63
2021/06/16 02:49:54;;;;;;;5.05;3.13;;;;;;;;;;5049213;28;20025;-63
2021/06/16 02:52:21;;;;;;;5.88;3.20;;;;;;;;;;5049136;28;20032;-63
2021/06/16 02:54:49;;;;;;;5.53;3.13;;;;;;;;;;5048942;28;20056;-64
2021/06/16 02:57:18;;;;;;;5.72;2.90;;;;;;;;;;5048965;28;20291;-65
2021/06/16 02:59:46;;;;;;;5.43;3.42;;;;;;;;;;5048422;28;20017;-63
2021/06/16 03:02:11;;;;;;;4.80;2.90;;;;;;;;;;5048729;28;20504;-63
2021/06/16 03:04:36;;;;;;;4.55;3.15;;;;;;;;;;5048135;28;20029;-63
2021/06/16 03:07:02;;;;;;;5.90;3.22;;;;;;;;;;5048600;28;20037;-63
2021/06/16 03:09:27;;;;;;;5.55;3.25;;;;;;;;;;5048194;28;20021;-62
2021/06/16 03:11:52;;;;;;;6.45;3.42;;;;;;;;;;5048921;28;20025;-63
2021/06/16 03:14:23;;;;;;;6.00;3.17;;;;;;;;;;5050141;28;20029;-63
2021/06/16 03:16:48;;;;;;;4.38;3.10;;;;;;;;;;5045134;28;20154;-63
2021/06/16 03:19:13;;;;;;;5.68;3.55;;;;;;;;;;5048500;28;20099;-63
2021/06/16 03:21:39;;;;;;;5.88;3.33;;;;;;;;;;5048263;28;20431;-64
2021/06/16 03:24:06;;;;;;;4.47;3.28;;;;;;;;;;5048469;28;20017;-64
2021/06/16 03:26:31;;;;;;;4.70;3.30;;;;;;;;;;5047712;28;20458;-63
2021/06/16 03:28:57;;;;;;;4.93;3.67;;;;;;;;;;5047240;28;20548;-63
2021/06/16 03:31:22;;;;;;;6.55;3.40;;;;;;;;;;5048102;28;20812;-63
2021/06/16 03:33:48;;;;;;;4.38;2.97;;;;;;;;;;5048187;28;20049;-64
2021/06/16 03:36:15;;;;;;;5.63;3.20;;;;;;;;;;5047795;28;20028;-63
2021/06/16 03:38:41;;;;;;;4.75;3.20;;;;;;;;;;5048379;28;20067;-63
2021/06/16 03:41:07;;;;;;;5.25;3.25;;;;;;;;;;5048051;28;20100;-63
2021/06/16 03:43:33;;;;;;;5.50;3.20;;;;;;;;;;5054436;28;20116;-62
2021/06/16 03:45:59;;;;;;;5.60;3.67;;;;;;;;;;5048302;28;20025;-63
2021/06/16 03:48:26;;;;;;;6.07;3.58;;;;;;;;;;5048040;28;20529;-62
2021/06/16 03:50:51;;;;;;;6.10;3.22;;;;;;;;;;5048196;28;20457;-63
2021/06/16 03:53:16;;;;;;;6.50;3.10;;;;;;;;;;5047785;28;20035;-63
2021/06/16 03:55:43;;;;;;;4.53;2.97;;;;;;;;;;5047974;28;20086;-63
2021/06/16 03:58:09;;;;;;;5.72;3.33;;;;;;;;;;5048224;28;20368;-63
2021/06/16 04:00:35;;;;;;;6.18;3.60;;;;;;;;;;5045894;28;20522;-63
2021/06/16 04:03:00;;;;;;;6.35;3.55;;;;;;;;;;5048165;28;20063;-62
2021/06/16 04:05:26;;;;;;;8.05;3.25;;;;;;;;;;5047418;28;20476;-62
2021/06/16 04:07:51;;;;;;;6.15;3.55;;;;;;;;;;5047183;28;20052;-63
2021/06/16 04:10:17;;;;;;;5.45;3.47;;;;;;;;;;5047567;28;20102;-63
2021/06/16 04:12:44;;;;;;;5.72;3.35;;;;;;;;;;5048289;28;20098;-64
2021/06/16 04:15:10;;;;;;;7.13;3.67;;;;;;;;;;5047655;28;20136;-63
2021/06/16 04:17:35;;;;;;;5.70;3.28;;;;;;;;;;5047731;28;20120;-63
2021/06/16 04:20:00;;;;;;;4.78;2.90;;;;;;;;;;5048001;28;20076;-63
2021/06/16 04:22:26;;;;;;;5.80;3.30;;;;;;;;;;5048210;28;20533;-63
2021/06/16 04:24:51;;;;;;;6.97;3.85;;;;;;;;;;5047669;28;20108;-63
2021/06/16 04:27:16;;;;;;;5.45;3.20;;;;;;;;;;5048231;28;20021;-63
2021/06/16 04:29:42;;;;;;;6.78;3.30;;;;;;;;;;5047441;28;20086;-63
2021/06/16 04:32:10;;;;;;;4.32;2.83;;;;;;;;;;5047801;28;20400;-63
2021/06/16 04:34:36;;;;;;;4.30;2.60;;;;;;;;;;5047152;28;20543;-63
2021/06/16 04:37:01;;;;;;;3.92;2.60;;;;;;;;;;5047697;28;20056;-64
2021/06/16 04:39:27;;;;;;;6.03;2.80;;;;;;;;;;5047853;28;20024;-63
2021/06/16 04:41:52;;;;;;;4.78;2.40;;;;;;;;;;5051853;28;20543;-63
2021/06/16 04:44:17;;;;;;;5.73;2.50;;;;;;;;;;5052131;28;20024;-62
2021/06/16 04:46:42;;;;;;;3.78;2.45;;;;;;;;;;5051932;28;20275;-63
2021/06/16 04:49:07;;;;;;;4.63;2.80;;;;;;;;;;5051545;28;20053;-64
2021/06/16 04:51:32;;;;;;;5.13;2.63;;;;;;;;;;5051983;28;20286;-63
2021/06/16 04:53:58;;;;;;;4.30;2.57;;;;;;;;;;5052225;28;20469;-63
2021/06/16 04:56:23;;;;;;;5.30;2.72;;;;;;;;;;5051989;28;20395;-63
2021/06/16 04:58:48;;;;;;;3.88;2.80;;;;;;;;;;5052223;28;20460;-63
2021/06/16 05:01:13;;;;;;;3.72;2.78;;;;;;;;;;5051720;28;20379;-64
2021/06/16 05:03:39;;;;;;;8.27;2.72;;;;;;;;;;5050905;28;20021;-64
2021/06/16 05:06:04;;;;;;;6.47;2.50;;;;;;;;;;5049691;28;20083;-64
2021/06/16 05:08:30;;;;;;;3.60;2.40;;;;;;;;;;5051306;28;20262;-63
2021/06/16 05:10:55;;;;;;;4.72;2.38;;;;;;;;;;5051572;28;20530;-67
2021/06/16 05:13:24;;;;;;;5.63;2.58;;;;;;;;;;5049346;28;20013;-67
2021/06/16 05:15:52;;;;;;;3.55;2.30;;;;;;;;;;5051916;28;20037;-67
2021/06/16 05:18:18;;;;;;;6.32;2.33;;;;;;;;;;5051573;28;20071;-67
2021/06/16 05:20:44;;;;;;;3.33;2.20;;;;;;;;;;5048802;28;20484;-67
2021/06/16 05:23:09;;;;;;;6.47;2.60;;;;;;;;;;5053621;28;20033;-67
2021/06/16 05:25:35;;;;;;;4.25;2.28;;;;;;;;;;5049399;28;20488;-67
2021/06/16 05:28:00;;;;;;;4.70;2.43;;;;;;;;;;5051382;28;20074;-67
2021/06/16 05:30:25;;;;;;;6.10;2.88;;;;;;;;;;5051336;28;20283;-66
2021/06/16 05:32:50;;;;;;;4.53;2.50;;;;;;;;;;5049792;28;20055;-67
2021/06/16 05:35:16;;;;;;;7.13;2.50;;;;;;;;;;5049508;28;20089;-67
2021/06/16 05:37:45;;;;;;;6.85;3.08;;;;;;;;;;5048863;28;20024;-67
2021/06/16 05:40:11;;;;;;;5.38;3.05;;;;;;;;;;5051419;28;20025;-67
2021/06/16 05:42:36;;;;;;;4.70;2.55;;;;;;;;;;5050910;28;20029;-66
2021/06/16 05:45:02;;;;;;;6.78;2.30;;;;;;;;;;5050993;28;20116;-67
2021/06/16 05:47:27;;;;;;;6.30;2.40;;;;;;;;;;5051355;28;20025;-67
2021/06/16 05:49:52;;;;;;;5.80;2.43;;;;;;;;;;5046514;28;20021;-66
2021/06/16 05:52:17;;;;;;;6.20;2.33;;;;;;;;;;5048930;28;20271;-67
2021/06/16 05:54:42;;;;;;;4.63;2.13;;;;;;;;;;5047962;28;20029;-67
2021/06/16 05:57:07;;;;;;;5.40;2.43;;;;;;;;;;5050138;28;20579;-67
2021/06/16 05:59:33;;;;;;;14.35;4.88;;;;;;;;;;5049048;28;20025;-66
2021/06/16 06:02:00;;;;;;;7.38;2.67;;;;;;;;;;5050935;28;20028;-67
2021/06/16 06:04:25;;;;;;;8.75;2.85;;;;;;;;;;5049807;28;20380;-67
2021/06/16 06:06:50;;;;;;;8.23;2.70;;;;;;;;;;5052800;28;20028;-66
2021/06/16 06:09:15;;;;;;;4.93;2.50;;;;;;;;;;5049549;28;20080;-66
2021/06/16 06:11:40;;;;;;;5.43;2.40;;;;;;;;;;5049546;28;20028;-66
2021/06/16 06:14:06;;;;;;;8.13;2.83;;;;;;;;;;5049709;28;20275;-67
2021/06/16 06:16:31;;;;;;;5.82;3.20;;;;;;;;;;5049375;28;20373;-66
2021/06/16 06:18:56;;;;;;;5.78;2.80;;;;;;;;;;5049407;28;20036;-67
2021/06/16 06:21:22;;;;;;;13.67;3.23;;;;;;;;;;5050284;28;20031;-66
2021/06/16 06:23:47;;;;;;;10.20;2.85;;;;;;;;;;5050608;28;20021;-67
2021/06/16 06:26:12;;;;;;;8.10;3.23;;;;;;;;;;5050462;28;20021;-66
2021/06/16 06:28:39;;;;;;;8.93;3.53;;;;;;;;;;5050522;28;20021;-67
2021/06/16 06:31:04;;;;;;;6.18;3.33;;;;;;;;;;5043134;28;20017;-67
2021/06/16 06:33:29;;;;;;;8.20;3.28;;;;;;;;;;5047889;28;20534;-67
2021/06/16 06:35:54;;;;;;;6.40;3.00;;;;;;;;;;5048694;28;20112;-66
2021/06/16 06:38:19;;;;;;;7.67;2.97;;;;;;;;;;5049600;28;20286;-66
2021/06/16 06:40:45;;;;;;;9.30;3.43;;;;;;;;;;5049730;28;20036;-67
2021/06/16 06:43:10;;;;;;;10.10;3.20;;;;;;;;;;5049689;28;20282;-68
2021/06/16 06:45:35;;;;;;;8.30;3.50;;;;;;;;;;5049465;28;20074;-67
2021/06/16 06:48:01;;;;;;;9.68;3.20;;;;;;;;;;5048851;28;20037;-67
2021/06/16 06:50:26;;;;;;;5.32;2.70;;;;;;;;;;5049064;28;20071;-67
2021/06/16 06:52:51;;;;;;;7.57;3.30;;;;;;;;;;5048636;28;20107;-67
2021/06/16 06:55:17;;;;;;;6.97;2.50;;;;;;;;;;5047822;28;20028;-67
2021/06/16 06:57:42;;;;;;;7.43;2.95;;;;;;;;;;5049577;28;20032;-67
2021/06/16 07:00:09;;;;;;;8.13;3.10;;;;;;;;;;5048993;28;20017;-67
2021/06/16 07:02:34;;;;;;;6.18;2.47;;;;;;;;;;5049137;28;20025;-67
2021/06/16 07:04:59;;;;;;;6.47;2.43;;;;;;;;;;5049522;28;20021;-67
2021/06/16 07:07:24;;;;;;;6.63;2.20;;;;;;;;;;5046169;28;20032;-66
2021/06/16 07:09:50;;;;;;;4.47;2.30;;;;;;;;;;5055502;28;20047;-66
2021/06/16 07:12:15;;;;;;;5.38;2.38;;;;;;;;;;5047796;28;20279;-66
2021/06/16 07:14:41;;;;;;;6.05;2.00;;;;;;;;;;5050021;28;20409;-67
2021/06/16 07:17:06;;;;;;;3.95;1.90;;;;;;;;;;5047906;28;20027;-67
2021/06/16 07:19:32;;;;;;;5.50;2.45;;;;;;;;;;5049543;28;20415;-67
2021/06/16 07:21:57;;;;;;;3.50;1.83;;;;;;;;;;5048188;28;20490;-67
2021/06/16 07:24:22;;;;;;;5.60;1.60;;;;;;;;;;5042993;28;20070;-67
2021/06/16 07:26:47;;;;;;;7.03;2.20;;;;;;;;;;5049082;28;20384;-67
2021/06/16 07:29:12;;;;;;;4.28;2.53;;;;;;;;;;5049270;28;20274;-67
2021/06/16 07:31:38;;;;;;;8.53;2.23;;;;;;;;;;5049069;28;20091;-68
2021/06/16 07:34:03;;;;;;;5.60;3.20;;;;;;;;;;5049186;28;20315;-67
2021/06/16 07:36:28;;;;;;;3.38;2.40;;;;;;;;;;5046800;28;20029;-68
2021/06/16 07:38:53;;;;;;;6.43;2.45;;;;;;;;;;5045947;28;20025;-67
2021/06/16 07:41:19;;;;;;;3.95;2.58;;;;;;;;;;5043473;28;20025;-67
2021/06/16 07:43:44;;;;;;;5.67;2.17;;;;;;;;;;5048941;28;20051;-68
2021/06/16 07:46:09;;;;;;;7.00;2.50;;;;;;;;;;5048373;28;20372;-66
2021/06/16 07:48:35;;;;;;;8.60;2.40;;;;;;;;;;5047622;28;21017;-67
2021/06/16 07:51:00;;;;;;;5.05;2.70;;;;;;;;;;5048632;28;20413;-66
2021/06/16 07:53:25;;;;;;;9.20;2.83;;;;;;;;;;5048572;28;20024;-65
2021/06/16 07:55:52;;;;;;;4.67;2.60;;;;;;;;;;5047627;28;20662;-65
2021/06/16 07:58:17;;;;;;;4.80;2.45;;;;;;;;;;5047255;28;20267;-68
2021/06/16 08:00:42;;;;;;;4.97;2.30;;;;;;;;;;5048505;28;20033;-66
2021/06/16 08:03:07;;;;;;;4.03;2.53;;;;;;;;;;5042830;28;20075;-68
2021/06/16 08:05:33;;;;;;;4.88;2.53;;;;;;;;;;5048447;28;20028;-67
2021/06/16 08:07:58;;;;;;;5.80;2.47;;;;;;;;;;5048581;28;20090;-67
2021/06/16 08:10:23;;;;;;;4.10;2.58;;;;;;;;;;5046219;28;20283;-69
2021/06/16 08:12:48;;;;;;;4.72;2.60;;;;;;;;;;5051411;28;20187;-67
2021/06/16 08:15:14;;;;;;;5.50;2.28;;;;;;;;;;5053296;28;20089;-68
2021/06/16 08:17:39;;;;;;;9.95;2.78;;;;;;;;;;5052194;28;20059;-66
2021/06/16 08:20:05;;;;;;;5.35;2.40;;;;;;;;;;5052526;28;20028;-67
2021/06/16 08:22:30;;;;;;;6.82;2.30;;;;;;;;;;5047940;28;20930;-65
2021/06/16 08:25:00;;;;;;;3.90;2.20;;;;;;;;;;5051427;28;20380;-65
2021/06/16 08:27:25;;;;;;;4.05;2.38;;;;;;;;;;5051261;28;20276;-66
2021/06/16 08:29:50;;;;;;;4.03;2.50;;;;;;;;;;5048072;28;20121;-65
2021/06/16 08:32:15;;;;;;;3.67;2.20;;;;;;;;;;5050633;28;20033;-66
2021/06/16 08:34:40;;;;;;;4.47;2.38;;;;;;;;;;5051804;28;20305;-65
2021/06/16 08:37:06;;;;;;;4.60;2.47;;;;;;;;;;5052258;28;20538;-65
2021/06/16 08:39:31;;;;;;;4.10;2.20;;;;;;;;;;5052022;28;20262;-66
2021/06/16 08:41:57;;;;;;;3.78;2.08;;;;;;;;;;5052108;28;20028;-66
2021/06/16 08:44:22;;;;;;;3.35;2.30;;;;;;;;;;5051693;28;20428;-69
2021/06/16 08:46:48;;;;;;;4.63;2.45;;;;;;;;;;5052557;28;20021;-66
2021/06/16 08:49:14;;;;;;;4.80;2.22;;;;;;;;;;5052295;28;20368;-66
2021/06/16 08:51:39;;;;;;;3.55;2.40;;;;;;;;;;5051420;28;20025;-65
2021/06/16 08:54:05;;;;;;;6.03;2.40;;;;;;;;;;5051984;28;20059;-66
2021/06/16 08:56:30;;;;;;;4.60;2.30;;;;;;;;;;5051916;28;20380;-66
2021/06/16 08:58:56;;;;;;;5.45;2.38;;;;;;;;;;5051640;28;20021;-65
2021/06/16 09:01:21;;;;;;;4.68;1.98;;;;;;;;;;5051854;28;20025;-66
2021/06/16 09:03:47;;;;;;;5.03;2.42;;;;;;;;;;5051920;28;20029;-66
2021/06/16 09:06:14;;;;;;;2.90;1.87;;;;;;;;;;5051830;28;20535;-66
2021/06/16 09:08:53;;;;;;;3.63;1.90;;;;;;;;;;5051852;28;20251;-65
2021/06/16 09:11:19;;;;;;;5.93;2.22;;;;;;;;;;5051556;28;20025;-65
2021/06/16 09:13:44;;;;;;;4.32;2.08;;;;;;;;;;5051457;28;20472;-65
2021/06/16 09:16:29;;;;;;;4.15;2.10;;;;;;;;;;5051933;28;20047;-65
2021/06/16 09:18:55;;;;;;;3.00;2.03;;;;;;;;;;5051477;28;20016;-65
2021/06/16 09:21:33;;;;;;;6.50;2.20;;;;;;;;;;5051470;28;20071;-66
2021/06/16 09:23:59;;;;;;;6.10;2.53;;;;;;;;;;5047967;28;20480;-65
2021/06/16 09:26:28;;;;;;;3.47;2.00;;;;;;;;;;5052545;28;20045;-65
2021/06/16 09:28:54;;;;;;;;;;;;;;;;;;5052029;28;20270;-66
2021/06/16 09:31:21;;;;;;;3.60;2.00;;;;;;;;;;5051322;28;19909;-65
2021/06/16 09:33:46;;;;;;;4.85;2.40;;;;;;;;;;5051042;28;20052;-66
2021/06/16 09:36:13;;;;;;;3.40;1.92;;;;;;;;;;5051144;28;20036;-66
2021/06/16 09:38:39;;;;;;;3.50;2.13;;;;;;;;;;5051506;28;20020;-66
2021/06/16 09:41:06;;;;;;;3.35;2.20;;;;;;;;;;5051518;28;20032;-65
2021/06/16 09:43:32;;;;;;;5.13;2.30;;;;;;;;;;5050860;28;20031;-66
2021/06/16 09:46:01;;;;;;;2.70;1.88;;;;;;;;;;5051287;28;20476;-66
2021/06/16 09:48:31;;;;;;;5.38;2.25;;;;;;;;;;5050846;28;20039;-66
2021/06/16 09:50:56;;;;;;;;;;;;;;;;;;5051342;28;20029;-66
2021/06/16 09:53:21;;;;;;;3.67;2.00;;;;;;;;;;5051292;28;19911;-65
2021/06/16 09:55:46;;;;;;;2.80;2.20;;;;;;;;;;5050554;28;20068;-65
2021/06/16 09:58:16;;;;;;;3.67;1.87;;;;;;;;;;5050810;28;20021;-65
2021/06/16 10:00:43;;;;;;;2.88;1.88;;;;;;;;;;5050532;28;20280;-67
2021/06/16 10:03:18;;;;;;;2.30;1.92;;;;;;;;;;5049239;28;20021;-66
2021/06/16 10:06:03;;;;;;;2.92;1.80;;;;;;;;;;5050520;28;20028;-66
2021/06/16 10:08:28;;;;;;;3.03;1.50;;;;;;;;;;5050611;28;20104;-64
2021/06/16 10:10:54;;;;;;;4.32;1.65;;;;;;;;;;5049893;28;20528;-65
2021/06/16 10:13:20;;;;;;;5.55;1.80;;;;;;;;;;5058522;28;20024;-66
2021/06/16 10:15:45;;;;;;;3.50;1.52;;;;;;;;;;5050034;28;20033;-66
2021/06/16 10:18:11;;;;;;;2.57;1.60;;;;;;;;;;5050822;28;20013;-65
2021/06/16 10:20:36;;;;;;;2.65;1.42;;;;;;;;;;5049200;28;20052;-66
2021/06/16 10:23:01;;;;;;;3.88;2.28;;;;;;;;;;5052261;28;20029;-66
2021/06/16 10:25:26;;;;;;;3.10;1.97;;;;;;;;;;5050139;28;20087;-66
2021/06/16 10:27:56;;;;;;;3.05;1.80;;;;;;;;;;5049540;28;20299;-66
2021/06/16 10:30:22;;;;;;;6.13;2.50;;;;;;;;;;5050185;28;20112;-66
2021/06/16 10:32:49;;;;;;;3.65;2.05;;;;;;;;;;5049991;28;20033;-66
2021/06/16 10:35:34;;;;;;;3.97;1.80;;;;;;;;;;5049949;28;20037;-66
2021/06/16 10:38:17;;;;;;;7.60;2.90;;;;;;;;;;5049462;28;20443;-65
2021/06/16 10:40:43;;;;;;;3.35;2.33;;;;;;;;;;5045192;28;20090;-65
2021/06/16 10:43:10;;;;;;;4.28;2.15;;;;;;;;;;5050053;28;20067;-65
2021/06/16 10:45:40;;;;;;;5.28;2.45;;;;;;;;;;5050064;28;20033;-66
2021/06/16 10:48:07;;;;;;;4.70;2.22;;;;;;;;;;5049259;28;20479;-65
2021/06/16 10:50:52;;;;;;;3.65;1.90;;;;;;;;;;5049706;28;20020;-66
2021/06/16 10:53:21;;;;;;;2.80;1.63;;;;;;;;;;5049974;28;20036;-65
2021/06/16 10:55:55;;;;;;;2.45;1.70;;;;;;;;;;5049612;28;20043;-65
2021/06/16 10:58:22;;;;;;;3.63;2.05;;;;;;;;;;5049120;28;20560;-65
2021/06/16 11:01:06;;;;;;;2.40;1.95;;;;;;;;;;5050250;28;20031;-66
2021/06/16 11:03:53;;;;;;;3.17;2.00;;;;;;;;;;5049876;28;20064;-65
2021/06/16 11:06:27;;;;;;;5.55;2.38;;;;;;;;;;5045660;28;20063;-65
2021/06/16 11:08:53;;;;;;;3.33;1.98;;;;;;;;;;5049232;28;20017;-64
2021/06/16 11:11:18;;;;;;;3.47;1.77;;;;;;;;;;5049772;28;20112;-65
2021/06/16 11:13:43;;;;;;;4.05;2.25;;;;;;;;;;5051487;28;20100;-65
2021/06/16 11:16:28;;;;;;;2.25;1.92;;;;;;;;;;5049615;28;20063;-64
2021/06/16 11:19:13;;;;;;;5.60;2.47;;;;;;;;;;5049276;28;20025;-66
2021/06/16 11:21:38;;;;;;;5.72;1.90;;;;;;;;;;5042745;28;20040;-65
2021/06/16 11:24:03;;;;;;;3.25;1.73;;;;;;;;;;5043735;28;20012;-66
2021/06/16 11:26:44;;;;;;;5.32;2.28;;;;;;;;;;5048900;28;20027;-65
2021/06/16 11:29:10;;;;;;;8.23;1.75;;;;;;;;;;5048695;28;20028;-66
2021/06/16 11:32:04;;;;;;;3.90;1.80;;;;;;;;;;5048203;28;20029;-65
2021/06/16 11:34:47;;;;;;;2.40;1.42;;;;;;;;;;5048213;28;20049;-66
2021/06/16 11:37:32;;;;;;;4.22;1.95;;;;;;;;;;5046747;28;20052;-65
2021/06/16 11:40:01;;;;;;;4.35;1.67;;;;;;;;;;5044072;28;20074;-63
2021/06/16 11:42:28;;;;;;;3.10;1.70;;;;;;;;;;5048201;28;20029;-62
2021/06/16 11:44:54;;;;;;;3.35;1.77;;;;;;;;;;5048782;28;20074;-63
2021/06/16 11:47:19;;;;;;;3.10;1.43;;;;;;;;;;5048548;28;20032;-63
2021/06/16 11:49:45;;;;;;;5.00;2.00;;;;;;;;;;5047778;28;20317;-63
2021/06/16 11:52:12;;;;;;;3.40;1.65;;;;;;;;;;5048590;28;20275;-62
2021/06/16 11:54:38;;;;;;;4.22;1.95;;;;;;;;;;5047086;28;20793;-62
2021/06/16 11:57:05;;;;;;;4.90;1.70;;;;;;;;;;5043050;28;20028;-63
2021/06/16 11:59:46;;;;;;;5.43;1.55;;;;;;;;;;5048099;28;20017;-64
2021/06/16 12:02:13;;;;;;;2.13;1.55;;;;;;;;;;5043869;28;20033;-63
2021/06/16 12:04:49;;;;;;;2.47;1.30;;;;;;;;;;5048661;28;20017;-62
2021/06/16 12:07:21;;;;;;;2.25;1.50;;;;;;;;;;5048676;28;20032;-61
2021/06/16 12:09:47;;;;;;;8.20;2.00;;;;;;;;;;5048339;28;20098;-62
2021/06/16 12:12:12;;;;;;;2.58;1.75;;;;;;;;;;5048808;28;20021;-62
2021/06/16 12:14:37;;;;;;;2.67;1.50;;;;;;;;;;5048251;28;20064;-62
2021/06/16 12:17:03;;;;;;;4.82;1.90;;;;;;;;;;5048605;28;20043;-62
2021/06/16 12:19:32;;;;;;;3.47;2.15;;;;;;;;;;5048576;28;20021;-63
2021/06/16 12:21:58;;;;;;;4.72;2.13;;;;;;;;;;5041990;28;20024;-63
2021/06/16 12:24:28;;;;;;;6.95;2.10;;;;;;;;;;5048211;28;20333;-62
2021/06/16 12:26:59;;;;;;;7.30;1.95;;;;;;;;;;5048321;28;20017;-63
2021/06/16 12:29:24;;;;;;;6.22;2.10;;;;;;;;;;5044965;28;20024;-63
2021/06/16 12:31:51;;;;;;;2.40;1.70;;;;;;;;;;5049190;28;20325;-62
2021/06/16 12:34:29;;;;;;;2.75;1.80;;;;;;;;;;5048464;28;20064;-62
2021/06/16 12:37:09;;;;;;;4.15;1.80;;;;;;;;;;5048667;28;20032;-62
2021/06/16 12:39:34;;;;;;;;;;;;;;;;;;5044031;28;20411;-62
2021/06/16 12:42:05;;;;;;;3.65;1.88;;;;;;;;;;5048334;28;19912;-63
2021/06/16 12:44:33;;;;;;;6.20;1.90;;;;;;;;;;5051507;28;20104;-62
2021/06/16 12:46:58;;;;;;;2.78;1.80;;;;;;;;;;5048255;28;20031;-61
2021/06/16 12:49:30;;;;;;;2.20;1.73;;;;;;;;;;5048086;28;20853;-63
2021/06/16 12:51:59;;;;;;;3.42;1.70;;;;;;;;;;5048040;28;20112;-63
2021/06/16 12:54:33;;;;;;;3.58;1.60;;;;;;;;;;5047623;28;20049;-63
2021/06/16 12:56:59;;;;;;;4.55;2.05;;;;;;;;;;5037766;28;20045;-64
2021/06/16 12:59:31;;;;;;;3.85;1.90;;;;;;;;;;5047896;28;20021;-65
2021/06/16 13:01:57;;;;;;;3.75;1.90;;;;;;;;;;5049801;28;20059;-63
2021/06/16 13:04:43;;;;;;;4.63;2.00;;;;;;;;;;5050891;28;20064;-63
2021/06/16 13:07:08;;;;;;;3.45;1.50;;;;;;;;;;5050703;28;20067;-62
2021/06/16 13:09:33;;;;;;;3.97;1.90;;;;;;;;;;5051505;28;20490;-62
2021/06/16 13:12:05;;;;;;;3.30;1.40;;;;;;;;;;5051046;28;20017;-64
2021/06/16 13:14:41;;;;;;;3.13;2.30;;;;;;;;;;5050862;28;20659;-64
2021/06/16 13:17:10;;;;;;;2.95;1.63;;;;;;;;;;5051071;28;20036;-64
2021/06/16 13:19:54;;;;;;;4.82;2.08;;;;;;;;;;5052617;28;20079;-64
2021/06/16 13:22:29;;;;;;;3.40;1.90;;;;;;;;;;5045244;28;20057;-64
2021/06/16 13:24:54;;;;;;;4.35;1.70;;;;;;;;;;5044200;28;20056;-64
2021/06/16 13:27:19;;;;;;;2.57;1.50;;;;;;;;;;5053100;28;20052;-63
2021/06/16 13:29:45;;;;;;;3.93;1.60;;;;;;;;;;5047256;28;20279;-65
2021/06/16 13:32:15;;;;;;;4.72;2.05;;;;;;;;;;5050315;28;20267;-64
2021/06/16 13:34:44;;;;;;;3.25;1.60;;;;;;;;;;5047827;28;20112;-63
2021/06/16 13:37:09;;;;;;;2.03;1.48;;;;;;;;;;5050726;28;20035;-63
2021/06/16 13:39:34;;;;;;;3.20;1.45;;;;;;;;;;5051686;28;20822;-63
2021/06/16 13:42:00;;;;;;;3.87;1.43;;;;;;;;;;5050763;28;20504;-63
2021/06/16 13:44:26;;;;;;;5.72;1.70;;;;;;;;;;5050525;28;20017;-63
2021/06/16 13:46:52;;;;;;;2.78;1.65;;;;;;;;;;5049979;28;20028;-63
2021/06/16 13:49:17;;;;;;;3.17;1.80;;;;;;;;;;5048649;28;20033;-63
2021/06/16 13:51:42;;;;;;;3.45;1.70;;;;;;;;;;5049821;28;20465;-62
2021/06/16 13:54:08;;;;;;;5.13;1.70;;;;;;;;;;5047572;28;20020;-62
2021/06/16 13:56:33;;;;;;;2.53;1.70;;;;;;;;;;5049754;28;20055;-63
2021/06/16 13:58:58;;;;;;;4.35;1.63;;;;;;;;;;5050067;28;20392;-62
2021/06/16 14:01:23;;;;;;;4.72;1.60;;;;;;;;;;5049426;28;20052;-62
2021/06/16 14:03:49;;;;;;;3.30;1.90;;;;;;;;;;5048148;28;20021;-63
2021/06/16 14:06:14;;;;;;;5.53;1.90;;;;;;;;;;5050082;28;20735;-62
2021/06/16 14:08:39;;;;;;;3.93;1.60;;;;;;;;;;5050711;28;20260;-63
2021/06/16 14:11:04;;;;;;;2.83;1.70;;;;;;;;;;5050450;28;20487;-62
2021/06/16 14:13:29;;;;;;;2.85;1.58;;;;;;;;;;5049453;28;20029;-63
2021/06/16 14:15:55;;;;;;;3.50;1.98;;;;;;;;;;5050866;28;20017;-63
2021/06/16 14:18:20;;;;;;;4.18;1.80;;;;;;;;;;5050184;28;20158;-63
2021/06/16 14:20:46;;;;;;;2.60;1.58;;;;;;;;;;5047912;28;20017;-63
2021/06/16 14:23:12;;;;;;;2.65;1.50;;;;;;;;;;5050962;28;20025;-62
2021/06/16 14:25:38;;;;;;;3.85;1.80;;;;;;;;;;5050241;28;20056;-63
2021/06/16 14:28:04;;;;;;;3.20;1.92;;;;;;;;;;5048954;28;20513;-63
2021/06/16 14:30:29;;;;;;;2.88;1.48;;;;;;;;;;5049995;28;20028;-62
2021/06/16 14:32:54;;;;;;;4.30;2.10;;;;;;;;;;5049762;28;20055;-63
2021/06/16 14:35:19;;;;;;;3.55;1.80;;;;;;;;;;5050019;28;20323;-62
2021/06/16 14:37:45;;;;;;;3.38;1.95;;;;;;;;;;5050544;28;20108;-63
2021/06/16 14:40:11;;;;;;;4.32;1.80;;;;;;;;;;5049770;28;20384;-64
2021/06/16 14:42:37;;;;;;;4.68;1.90;;;;;;;;;;5052185;28;20037;-63